PDT,Max TemperatureF,Mean TemperatureF,Min TemperatureF,Max Dew PointF,MeanDew PointF,Min DewpointF,Max Humidity, Mean Humidity, Min Humidity, Max Sea Level PressureIn, Mean Sea Level PressureIn, Min Sea Level PressureIn, Max VisibilityMiles, Mean VisibilityMiles, Min VisibilityMiles, Max Wind SpeedMPH, Mean Wind SpeedMPH, Max Gust SpeedMPH,PrecipitationIn, CloudCover, Events, WindDirDegrees
2013-5-1,57,47,37,39,33,25,79,62,30,30.61,30.56,30.48,10,10,10,14,8,,0.00,0,,290
2013-5-2,60,48,35,39,35,28,89,63,31,30.57,30.48,30.42,10,10,10,7,3,,0.00,0,,206
2013-5-3,71,54,39,47,42,36,86,65,32,30.43,30.37,30.27,10,10,10,15,6,,0.00,0,,142
2013-5-4,75,60,46,45,40,30,77,49,20,30.29,30.19,30.03,10,10,10,13,7,,0.00,0,,142
2013-5-5,77,63,51,46,42,37,66,44,32,30.03,29.92,29.80,10,10,10,12,7,,0.00,0,,219
2013-5-6,75,62,48,50,44,38,93,57,35,29.87,29.84,29.81,10,10,10,10,7,,0.00,0,,281
2013-5-7,60,52,46,50,47,45,100,88,69,30.01,29.94,29.84,10,8,2,16,6,21,0.00,4,,304
2013-5-8,59,52,46,50,47,45,93,84,70,30.16,30.12,30.03,10,10,10,12,7,,0.00,5,,295
2013-5-9,59,52,46,49,46,45,93,84,72,30.24,30.20,30.16,10,10,10,10,7,17,0.00,3,,302
2013-5-10,60,52,46,50,47,44,100,88,72,30.22,30.20,30.15,10,7,0,8,5,,0.00,3,Fog,299
2013-5-11,64,56,50,55,49,46,90,78,58,30.18,30.10,30.02,10,10,10,12,5,,0.00,3,Rain,285
2013-5-12,62,58,53,58,56,52,97,93,84,30.07,30.04,30.02,10,7,2,12,3,,0.51,8,Rain,349
2013-5-13,60,52,44,52,49,40,96,86,66,30.19,30.01,29.92,10,9,2,14,6,23,0.25,5,Rain,255
2013-5-14,59,50,44,45,43,40,90,74,57,30.22,30.19,30.14,10,10,10,9,6,,0.00,3,,266
2013-5-15,55,52,48,49,46,44,93,85,67,30.13,30.06,30.01,10,10,10,6,3,,0.03,8,Rain,276
2013-5-16,62,53,45,52,49,44,100,91,64,30.01,29.98,29.91,10,5,0,8,2,,0.01,7,Fog-Rain,75
2013-5-17,57,52,46,52,50,46,100,89,74,30.04,29.98,29.94,10,9,0,7,4,,0.11,8,Fog-Rain,292
2013-5-18,57,50,46,50,47,45,100,88,74,30.30,30.13,30.04,10,9,1,8,3,,0.00,7,,277
2013-5-19,60,54,46,49,46,43,93,81,62,30.43,30.37,30.29,10,10,10,12,8,18,0.00,6,,296
2013-5-20,57,50,44,47,45,42,93,83,69,30.37,30.16,29.93,10,10,3,15,7,21,0.20,4,Rain,298
2013-5-21,53,48,46,48,44,43,93,87,80,29.91,29.83,29.80,10,9,4,7,3,,0.29,8,Rain,310
2013-5-22,57,48,42,47,44,41,96,81,62,29.95,29.88,29.86,10,10,5,8,3,,0.23,5,Rain,293
2013-5-23,57,50,46,47,45,41,96,84,62,29.98,29.95,29.92,10,10,8,10,3,,0.01,6,,304
2013-5-24,57,52,48,48,45,42,93,79,62,30.05,30.01,29.97,10,10,10,10,5,,0.00,7,,287
2013-5-25,55,52,48,49,46,43,96,83,64,30.04,30.02,29.99,10,10,8,8,4,,0.13,8,Rain,300
2013-5-26,57,52,48,53,49,46,100,93,83,30.00,29.97,29.94,10,7,0,6,2,,0.28,7,Fog-Rain,44
2013-5-27,57,50,46,52,49,45,100,94,84,29.93,29.77,29.64,10,6,0,7,2,,0.03,7,Fog-Rain,305
2013-5-28,57,52,50,51,49,47,93,86,75,29.87,29.81,29.75,10,10,9,8,3,,0.01,8,Rain,314
2013-5-29,55,52,48,49,47,46,93,87,74,29.97,29.81,29.70,10,9,2,17,7,26,0.35,8,Rain,286
2013-5-30,57,50,44,48,46,43,96,85,69,30.25,30.10,29.97,10,10,8,9,3,,0.02,7,Rain,266
2013-5-31,60,52,46,47,46,44,93,78,62,30.36,30.31,30.24,10,10,10,8,4,,0.00,6,,287